createdAt,value
2018-01-19T00:02:24.489Z,1.90
2018-01-19T00:04:51.957Z,1.70
2018-01-19T00:07:19.404Z,3.13
2018-01-19T00:09:46.881Z,1.70
2018-01-19T00:12:14.351Z,1.80
2018-01-19T00:14:42.585Z,1.77
2018-01-19T00:17:10.057Z,1.83
2018-01-19T00:19:37.526Z,2.17
2018-01-19T00:22:05.086Z,2.30
2018-01-19T00:24:32.616Z,2.37
2018-01-19T00:27:00.129Z,3.03
2018-01-19T00:29:27.619Z,2.77
2018-01-19T00:31:55.109Z,2.60
2018-01-19T00:34:22.569Z,2.60
2018-01-19T00:36:50.059Z,2.47
2018-01-19T00:39:17.534Z,2.23
2018-01-19T00:41:44.992Z,1.90
2018-01-19T00:44:12.467Z,2.23
2018-01-19T00:46:39.934Z,2.27
2018-01-19T00:49:07.403Z,2.00
2018-01-19T00:51:34.869Z,2.03
2018-01-19T00:54:02.345Z,2.17
2018-01-19T00:56:30.571Z,2.47
2018-01-19T00:58:58.084Z,2.60
2018-01-19T01:01:26.445Z,2.70
2018-01-19T01:03:53.923Z,2.63
2018-01-19T01:06:22.411Z,2.73
2018-01-19T01:08:50.633Z,2.80
2018-01-19T01:11:18.115Z,3.50
2018-01-19T01:13:45.568Z,3.70
2018-01-19T01:16:13.045Z,3.40
2018-01-19T01:18:41.288Z,3.27
2018-01-19T01:21:08.774Z,3.30
2018-01-19T01:23:37.017Z,3.57
2018-01-19T01:26:04.511Z,4.53
2018-01-19T01:28:32.840Z,3.70
2018-01-19T01:31:00.329Z,4.57
2018-01-19T01:33:28.569Z,4.43
2018-01-19T01:35:56.047Z,4.10
2018-01-19T01:38:23.505Z,4.77
2018-01-19T01:40:50.964Z,4.53
2018-01-19T01:43:18.428Z,3.93
2018-01-19T01:45:46.666Z,3.50
2018-01-19T01:48:14.840Z,3.40
2018-01-19T01:50:42.311Z,2.90
2018-01-19T01:53:09.761Z,3.10
2018-01-19T01:55:37.227Z,3.40
2018-01-19T01:58:04.803Z,3.67
2018-01-19T02:00:32.264Z,3.33
2018-01-19T02:02:59.751Z,2.80
2018-01-19T02:05:27.236Z,2.80
2018-01-19T02:07:54.688Z,2.63
2018-01-19T02:10:22.166Z,3.20
2018-01-19T02:12:49.637Z,3.17
2018-01-19T02:15:17.985Z,3.10
2018-01-19T02:17:45.560Z,3.53
2018-01-19T02:20:13.080Z,4.07
2018-01-19T02:22:40.563Z,3.70
2018-01-19T02:25:08.044Z,3.80
2018-01-19T02:27:35.516Z,4.60
2018-01-19T02:30:03.567Z,4.27
2018-01-19T02:32:31.042Z,4.70
2018-01-19T02:34:58.500Z,5.30
2018-01-19T02:37:25.963Z,5.23
2018-01-19T02:39:54.198Z,5.43
2018-01-19T02:42:21.668Z,5.60
2018-01-19T02:44:49.144Z,5.70
2018-01-19T02:47:16.643Z,6.60
2018-01-19T02:49:44.129Z,6.27
2018-01-19T02:52:11.612Z,6.20
2018-01-19T02:54:39.069Z,6.23
2018-01-19T02:57:06.533Z,6.77
2018-01-19T02:59:34.772Z,6.93
2018-01-19T03:02:02.245Z,7.53
2018-01-19T03:04:29.732Z,7.23
2018-01-19T03:06:57.961Z,6.33
2018-01-19T03:09:25.441Z,5.80
2018-01-19T03:11:52.900Z,6.70
2018-01-19T03:14:20.369Z,7.03
2018-01-19T03:16:47.827Z,7.77
2018-01-19T03:19:16.292Z,7.40
2018-01-19T03:21:43.786Z,6.90
2018-01-19T03:24:11.280Z,7.47
2018-01-19T03:26:38.760Z,7.13
2018-01-19T03:29:06.229Z,7.40
2018-01-19T03:31:33.718Z,6.90
2018-01-19T03:34:01.164Z,7.20
2018-01-19T03:36:28.638Z,7.63
2018-01-19T03:38:56.099Z,7.60
2018-01-19T03:41:23.565Z,6.77
2018-01-19T03:43:51.101Z,6.17
2018-01-19T03:46:18.601Z,5.93
2018-01-19T03:48:46.064Z,5.17
2018-01-19T03:51:13.642Z,4.13
2018-01-19T03:53:41.101Z,4.40
2018-01-19T03:56:08.708Z,3.73
2018-01-19T03:58:36.184Z,3.10
2018-01-19T04:01:03.731Z,3.93
2018-01-19T04:03:31.196Z,3.67
2018-01-19T04:05:58.663Z,4.20
2018-01-19T04:08:26.138Z,3.80
2018-01-19T04:10:53.601Z,3.60
2018-01-19T04:13:21.084Z,3.73
2018-01-19T04:15:49.317Z,3.97
2018-01-19T04:18:16.790Z,4.13
2018-01-19T04:20:45.048Z,4.00
2018-01-19T04:23:12.608Z,3.80
2018-01-19T04:25:40.073Z,4.43
2018-01-19T04:28:07.538Z,4.70
2018-01-19T04:30:35.017Z,4.43
2018-01-19T04:33:03.265Z,4.63
2018-01-19T04:35:30.778Z,4.10
2018-01-19T04:37:58.237Z,4.17
2018-01-19T04:40:25.706Z,3.63
2018-01-19T04:42:54.076Z,3.30
2018-01-19T04:45:21.552Z,3.60
2018-01-19T04:47:49.024Z,3.73
2018-01-19T04:50:16.479Z,4.03
2018-01-19T04:52:45.476Z,4.00
2018-01-19T04:55:13.153Z,3.67
2018-01-19T04:57:40.671Z,3.53
2018-01-19T05:00:08.365Z,4.33
2018-01-19T05:02:35.895Z,4.90
2018-01-19T05:05:03.590Z,4.50
2018-01-19T05:07:31.100Z,4.63
2018-01-19T05:09:59.306Z,4.87
2018-01-19T05:12:26.765Z,4.67
2018-01-19T05:14:55.005Z,4.90
2018-01-19T05:17:22.474Z,5.93
2018-01-19T05:19:49.951Z,4.30
2018-01-19T05:22:17.492Z,5.17
2018-01-19T05:24:44.954Z,5.40
2018-01-19T05:27:12.425Z,5.80
2018-01-19T05:29:39.894Z,6.03
2018-01-19T05:32:07.364Z,5.43
2018-01-19T05:34:34.821Z,6.60
2018-01-19T05:37:03.187Z,6.10
2018-01-19T05:39:31.421Z,7.03
2018-01-19T05:41:59.010Z,7.63
2018-01-19T05:44:26.502Z,7.33
2018-01-19T05:46:54.074Z,7.63
2018-01-19T05:49:21.532Z,6.97
2018-01-19T05:51:49.000Z,7.10
2018-01-19T05:54:16.464Z,7.33
2018-01-19T05:56:44.019Z,6.97
2018-01-19T05:59:11.536Z,7.30
2018-01-19T06:01:39.896Z,7.20
2018-01-19T06:04:07.426Z,8.90
2018-01-19T06:06:34.886Z,8.00
2018-01-19T06:09:02.364Z,8.20
2018-01-19T06:11:29.835Z,7.73
2018-01-19T06:13:57.320Z,7.70
2018-01-19T06:16:24.791Z,7.27
2018-01-19T06:18:52.259Z,6.93
2018-01-19T06:21:20.797Z,6.90
2018-01-19T06:23:49.028Z,6.30
2018-01-19T06:26:16.497Z,6.70
2018-01-19T06:28:44.611Z,7.00
2018-01-19T06:31:12.857Z,6.93
2018-01-19T06:33:40.325Z,6.90
2018-01-19T06:36:07.781Z,5.90
2018-01-19T06:38:36.010Z,5.30
2018-01-19T06:41:03.489Z,5.30
2018-01-19T06:43:30.964Z,6.57
2018-01-19T06:45:58.488Z,5.20
2018-01-19T06:48:25.966Z,5.53
2018-01-19T06:50:53.429Z,6.30
2018-01-19T06:53:21.396Z,6.13
2018-01-19T06:55:48.880Z,6.37
2018-01-19T06:58:17.132Z,6.97
2018-01-19T07:00:44.591Z,6.73
2018-01-19T07:03:12.828Z,6.27
2018-01-19T07:05:40.294Z,6.57
2018-01-19T07:08:07.928Z,6.87
2018-01-19T07:10:35.512Z,7.30
2018-01-19T07:13:02.997Z,6.00
2018-01-19T07:15:30.673Z,6.80
2018-01-19T07:17:58.156Z,6.63
2018-01-19T07:20:25.686Z,6.40
2018-01-19T07:22:53.130Z,6.27
2018-01-19T07:25:20.621Z,6.73
2018-01-19T07:27:48.891Z,6.30
2018-01-19T07:30:17.140Z,6.27
2018-01-19T07:32:44.609Z,6.03
2018-01-19T07:35:12.140Z,6.53
2018-01-19T07:37:39.609Z,5.50
2018-01-19T07:40:07.079Z,5.23
2018-01-19T07:42:34.535Z,5.63
2018-01-19T07:45:02.015Z,6.90
2018-01-19T07:47:29.481Z,5.27
2018-01-19T07:49:56.964Z,6.13
2018-01-19T07:52:24.981Z,6.40
2018-01-19T07:54:53.478Z,6.33
2018-01-19T07:57:21.738Z,6.30
2018-01-19T07:59:49.212Z,6.33
2018-01-19T08:02:17.453Z,7.77
2018-01-19T08:04:44.920Z,6.60
2018-01-19T08:07:13.128Z,6.73
2018-01-19T08:09:40.663Z,6.47
2018-01-19T08:12:08.880Z,7.13
2018-01-19T08:14:36.365Z,6.93
2018-01-19T08:17:03.908Z,7.50
2018-01-19T08:19:31.389Z,7.17
2018-01-19T08:21:58.857Z,8.33
2018-01-19T08:24:27.096Z,8.10
2018-01-19T08:26:54.692Z,7.30
2018-01-19T08:29:22.152Z,8.60
2018-01-19T08:31:50.392Z,8.70
2018-01-19T08:34:17.870Z,7.83
2018-01-19T08:36:45.332Z,8.23
2018-01-19T08:39:12.800Z,8.30
2018-01-19T08:41:40.257Z,7.80
2018-01-19T08:44:07.731Z,7.20
2018-01-19T08:46:35.369Z,8.30
2018-01-19T08:49:02.897Z,7.90
2018-01-19T08:51:30.450Z,7.80
2018-01-19T08:53:57.944Z,7.90
2018-01-19T08:56:25.393Z,7.50
2018-01-19T08:58:52.908Z,7.37
2018-01-19T09:01:20.392Z,8.00
2018-01-19T09:03:47.978Z,7.87
2018-01-19T09:06:15.433Z,6.87
2018-01-19T09:08:42.887Z,6.63
2018-01-19T09:11:10.414Z,6.60
2018-01-19T09:13:37.892Z,7.50
2018-01-19T09:16:05.517Z,7.40
2018-01-19T09:18:32.985Z,7.80
2018-01-19T09:21:00.459Z,7.67
2018-01-19T09:23:27.982Z,8.03
2018-01-19T09:25:55.481Z,7.30
2018-01-19T09:28:22.942Z,7.40
2018-01-19T09:30:50.409Z,6.47
2018-01-19T09:33:18.167Z,6.50
2018-01-19T09:35:45.701Z,6.60
2018-01-19T09:38:13.835Z,5.70
2018-01-19T09:40:42.241Z,6.30
2018-01-19T09:43:09.762Z,6.50
2018-01-19T09:45:37.996Z,6.20
2018-01-19T09:48:05.470Z,6.67
2018-01-19T09:50:32.946Z,5.40
2018-01-19T09:53:00.401Z,5.70
2018-01-19T09:55:28.636Z,4.63
2018-01-19T09:57:56.113Z,5.30
2018-01-19T10:00:23.664Z,5.10
2018-01-19T10:02:51.128Z,5.00
2018-01-19T10:05:18.694Z,4.67
2018-01-19T10:07:46.156Z,4.27
2018-01-19T10:10:14.389Z,5.33
2018-01-19T10:12:41.951Z,5.50
2018-01-19T10:15:09.477Z,4.00
2018-01-19T10:17:37.012Z,4.50
2018-01-19T10:20:04.513Z,4.43
2018-01-19T10:22:31.995Z,4.13
2018-01-19T10:24:59.472Z,3.80
2018-01-19T10:27:26.942Z,4.27
2018-01-19T10:29:55.208Z,3.10
2018-01-19T10:32:22.694Z,3.97
2018-01-19T10:34:50.374Z,3.80
2018-01-19T10:37:17.964Z,3.70
2018-01-19T10:39:45.445Z,4.23
2018-01-19T10:42:12.907Z,2.93
2018-01-19T10:44:40.410Z,3.67
2018-01-19T10:47:07.892Z,4.17
2018-01-19T10:49:35.364Z,3.27
2018-01-19T10:52:04.460Z,3.03
2018-01-19T10:54:32.194Z,4.10
2018-01-19T10:56:59.644Z,4.70
2018-01-19T10:59:27.183Z,3.50
2018-01-19T11:01:54.704Z,3.67
2018-01-19T11:04:22.152Z,3.87
2018-01-19T11:06:49.636Z,3.47
2018-01-19T11:09:17.862Z,3.27
2018-01-19T11:11:45.540Z,3.33
2018-01-19T11:14:13.082Z,3.60
2018-01-19T11:16:40.752Z,3.53
2018-01-19T11:19:08.398Z,3.37
2018-01-19T11:21:36.021Z,3.60
2018-01-19T11:24:04.387Z,3.10
2018-01-19T11:26:32.686Z,3.57
2018-01-19T11:29:00.222Z,3.40
2018-01-19T11:31:28.499Z,3.17
2018-01-19T11:33:56.845Z,3.03
2018-01-19T11:36:24.391Z,3.23
2018-01-19T11:38:51.838Z,3.70
2018-01-19T11:41:19.317Z,3.13
2018-01-19T11:43:46.809Z,3.33
2018-01-19T11:46:15.064Z,3.40
2018-01-19T11:48:42.550Z,6.23
2018-01-19T11:51:10.785Z,3.33
2018-01-19T11:53:38.264Z,3.43
2018-01-19T11:56:06.499Z,4.53
2018-01-19T11:58:34.113Z,4.00
2018-01-19T12:01:02.425Z,3.27
2018-01-19T12:03:30.114Z,3.60
2018-01-19T12:05:58.514Z,3.27
2018-01-19T12:08:27.576Z,3.20
2018-01-19T12:10:55.050Z,3.80
2018-01-19T12:13:22.520Z,3.10
2018-01-19T12:15:50.021Z,3.30
2018-01-19T12:18:17.494Z,3.33
2018-01-19T12:20:44.964Z,3.80
2018-01-19T12:23:12.440Z,4.23
2018-01-19T12:25:40.678Z,3.70
2018-01-19T12:28:08.164Z,3.70
2018-01-19T12:30:35.634Z,3.73
2018-01-19T12:33:03.112Z,5.00
2018-01-19T12:35:31.353Z,3.90
2018-01-19T12:37:59.606Z,3.60
2018-01-19T12:40:27.071Z,3.87
2018-01-19T12:42:54.553Z,3.77
2018-01-19T12:45:22.082Z,3.80
2018-01-19T12:47:49.653Z,3.90
2018-01-19T12:50:17.317Z,4.37
2018-01-19T12:52:44.827Z,4.10
2018-01-19T12:55:12.410Z,3.87
2018-01-19T12:57:40.017Z,3.83
2018-01-19T13:00:08.260Z,4.10
2018-01-19T13:02:35.724Z,3.70
2018-01-19T13:05:03.195Z,3.50
2018-01-19T13:07:30.653Z,3.27
2018-01-19T13:09:58.122Z,3.53
2018-01-19T13:12:26.498Z,3.30
2018-01-19T13:14:54.152Z,2.90
2018-01-19T13:17:21.657Z,2.90
2018-01-19T13:19:49.153Z,3.57
2018-01-19T13:22:16.613Z,2.93
2018-01-19T13:24:44.204Z,3.03
2018-01-19T13:27:12.445Z,3.10
2018-01-19T13:29:40.023Z,3.00
2018-01-19T13:32:08.279Z,3.37
2018-01-19T13:34:35.755Z,3.57
2018-01-19T13:37:03.239Z,2.57
2018-01-19T13:39:30.725Z,2.10
2018-01-19T13:41:58.252Z,2.83
2018-01-19T13:44:26.411Z,2.67
2018-01-19T13:46:54.878Z,4.77
2018-01-19T13:49:22.360Z,2.10
2018-01-19T13:51:50.796Z,2.60
2018-01-19T13:54:18.309Z,2.47
2018-01-19T13:56:45.792Z,2.27
2018-01-19T13:59:13.774Z,2.13
2018-01-19T14:01:41.330Z,2.50
2018-01-19T14:04:08.874Z,3.73
2018-01-19T14:06:36.477Z,2.33
2018-01-19T14:09:04.720Z,2.60
2018-01-19T14:11:32.182Z,2.47
2018-01-19T14:13:59.658Z,2.27
2018-01-19T14:16:27.105Z,2.93
2018-01-19T14:18:54.595Z,2.60
2018-01-19T14:21:22.837Z,3.07
2018-01-19T14:23:50.396Z,2.00
2018-01-19T14:26:17.884Z,1.90
2018-01-19T14:28:45.341Z,2.23
2018-01-19T14:31:13.573Z,2.00
2018-01-19T14:33:41.053Z,2.17
2018-01-19T14:36:09.413Z,3.20
2018-01-19T14:38:36.877Z,2.60
2018-01-19T14:41:05.007Z,1.80
2018-01-19T14:43:32.614Z,2.73
2018-01-19T14:46:00.069Z,2.30
2018-01-19T14:48:27.571Z,2.23
2018-01-19T14:50:56.568Z,2.33
2018-01-19T14:53:24.022Z,2.47
2018-01-19T14:55:51.566Z,2.40
2018-01-19T14:58:19.796Z,2.00
2018-01-19T15:00:47.341Z,2.13
2018-01-19T15:03:14.819Z,2.17
2018-01-19T15:05:42.302Z,2.00
2018-01-19T15:08:09.785Z,2.27
2018-01-19T15:10:37.288Z,2.57
2018-01-19T15:13:04.799Z,2.17
2018-01-19T15:15:32.248Z,3.17
2018-01-19T15:18:00.533Z,2.30
2018-01-19T15:20:28.022Z,1.80
2018-01-19T15:22:55.716Z,2.30
2018-01-19T15:25:23.227Z,2.40
2018-01-19T15:27:50.738Z,2.57
2018-01-19T15:30:18.198Z,2.03
2018-01-19T15:32:45.679Z,2.40
2018-01-19T15:35:13.933Z,1.97
2018-01-19T15:37:41.403Z,2.23
2018-01-19T15:40:09.629Z,2.30
2018-01-19T15:42:37.100Z,2.00
2018-01-19T15:45:05.320Z,2.17
2018-01-19T15:47:32.814Z,2.37
2018-01-19T15:50:00.279Z,2.30
2018-01-19T15:52:27.833Z,2.40
2018-01-19T15:54:55.466Z,2.10
2018-01-19T15:57:23.068Z,2.07
2018-01-19T15:59:50.594Z,2.23
2018-01-19T16:02:18.058Z,1.90
2018-01-19T16:04:45.540Z,2.00
2018-01-19T16:07:12.997Z,2.23
2018-01-19T16:09:40.464Z,2.63
2018-01-19T16:12:07.973Z,2.30
2018-01-19T16:14:35.444Z,2.50
2018-01-19T16:17:03.676Z,3.83
2018-01-19T16:19:31.933Z,3.00
2018-01-19T16:21:59.393Z,2.40
2018-01-19T16:24:27.758Z,2.83
2018-01-19T16:26:55.228Z,2.27
2018-01-19T16:29:22.737Z,2.53
2018-01-19T16:31:50.253Z,2.30
2018-01-19T16:34:18.492Z,2.90
2018-01-19T16:36:46.072Z,2.40
2018-01-19T16:39:13.530Z,3.23
2018-01-19T16:41:41.015Z,2.47
2018-01-19T16:44:08.602Z,2.70
2018-01-19T16:46:36.064Z,3.20
2018-01-19T16:49:07.244Z,3.03
2018-01-19T16:51:31.010Z,3.40
2018-01-19T16:53:58.552Z,2.70
2018-01-19T16:56:26.034Z,3.07
2018-01-19T16:58:53.489Z,2.60
2018-01-19T17:01:20.977Z,2.47
2018-01-19T17:03:48.462Z,2.73
2018-01-19T17:06:15.949Z,3.03
2018-01-19T17:08:43.424Z,2.33
2018-01-19T17:11:10.877Z,3.30
2018-01-19T17:13:39.142Z,3.00
2018-01-19T17:16:08.170Z,2.87
2018-01-19T17:18:36.572Z,2.97
2018-01-19T17:21:04.097Z,2.90
2018-01-19T17:23:32.352Z,3.30
2018-01-19T17:25:59.809Z,2.93
2018-01-19T17:28:27.290Z,3.27
2018-01-19T17:30:55.616Z,3.63
2018-01-19T17:33:23.252Z,3.50
2018-01-19T17:35:50.730Z,3.23
2018-01-19T17:38:18.178Z,4.20
2018-01-19T17:40:45.666Z,3.73
2018-01-19T17:43:13.161Z,3.70
2018-01-19T17:45:41.395Z,4.40
2018-01-19T17:48:08.856Z,3.63
2018-01-19T17:50:36.375Z,3.20
2018-01-19T17:53:03.850Z,3.10
2018-01-19T17:55:31.329Z,3.90
2018-01-19T17:57:58.813Z,2.93
2018-01-19T18:00:27.051Z,3.57
2018-01-19T18:02:54.530Z,3.20
2018-01-19T18:05:24.464Z,4.07
2018-01-19T18:07:52.712Z,3.40
2018-01-19T18:10:20.206Z,3.30
2018-01-19T18:12:48.727Z,3.57
2018-01-19T18:15:16.191Z,3.10
2018-01-19T18:17:43.668Z,3.90
2018-01-19T18:20:11.130Z,2.97
2018-01-19T18:22:38.618Z,4.13
2018-01-19T18:25:06.890Z,4.30
2018-01-19T18:27:35.116Z,3.90
2018-01-19T18:30:02.589Z,4.50
2018-01-19T18:32:30.058Z,3.23
2018-01-19T18:34:58.324Z,3.13
2018-01-19T18:37:25.801Z,3.97
2018-01-19T18:39:54.450Z,3.03
2018-01-19T18:42:21.924Z,3.20
2018-01-19T18:44:49.413Z,3.50
2018-01-19T18:47:17.920Z,3.93
2018-01-19T18:49:45.441Z,3.20
2018-01-19T18:52:13.693Z,3.20
2018-01-19T18:54:42.176Z,3.40
2018-01-19T18:57:09.750Z,3.60
2018-01-19T18:59:38.025Z,4.63
2018-01-19T19:02:06.282Z,4.10
2018-01-19T19:04:33.762Z,4.23
2018-01-19T19:07:03.160Z,4.43
2018-01-19T19:09:31.404Z,3.70
2018-01-19T19:11:58.899Z,4.63
2018-01-19T19:14:27.141Z,4.47
2018-01-19T19:16:54.785Z,5.03
2018-01-19T19:19:22.460Z,3.90
2018-01-19T19:21:49.963Z,2.87
2018-01-19T19:24:18.196Z,3.67
2018-01-19T19:26:45.704Z,3.60
2018-01-19T19:29:13.178Z,3.53
2018-01-19T19:31:40.676Z,4.57
2018-01-19T19:34:08.135Z,3.63
2018-01-19T19:36:35.609Z,4.00
2018-01-19T19:39:03.846Z,3.80
2018-01-19T19:41:31.320Z,3.93
2018-01-19T19:43:58.851Z,4.00
2018-01-19T19:46:27.205Z,3.33
2018-01-19T19:48:54.833Z,3.90
2018-01-19T19:51:22.303Z,4.43
2018-01-19T19:53:50.566Z,4.07
2018-01-19T19:56:19.537Z,3.70
2018-01-19T19:58:47.011Z,4.27
2018-01-19T20:01:14.526Z,3.70
2018-01-19T20:03:42.059Z,3.83
2018-01-19T20:06:10.311Z,3.80
2018-01-19T20:08:38.648Z,4.67
2018-01-19T20:11:06.196Z,5.50
2018-01-19T20:13:33.752Z,4.00
2018-01-19T20:16:01.246Z,3.77
2018-01-19T20:18:29.460Z,4.47
2018-01-19T20:20:57.925Z,3.97
2018-01-19T20:23:26.374Z,3.70
2018-01-19T20:25:53.921Z,3.30
2018-01-19T20:28:21.385Z,4.00
2018-01-19T20:30:48.992Z,3.80
2018-01-19T20:33:17.231Z,3.20
2018-01-19T20:35:44.823Z,3.63
2018-01-19T20:38:13.297Z,3.27
2018-01-19T20:40:41.560Z,3.80
2018-01-19T20:43:10.554Z,4.20
2018-01-19T20:45:38.037Z,3.73
2018-01-19T20:48:06.187Z,3.60
2018-01-19T20:50:34.637Z,4.20
2018-01-19T20:53:02.101Z,3.93
2018-01-19T20:55:29.729Z,4.00
2018-01-19T20:57:57.484Z,3.60
2018-01-19T21:00:24.965Z,4.03
2018-01-19T21:02:52.445Z,4.20
2018-01-19T21:05:20.077Z,3.20
2018-01-19T21:07:47.689Z,3.70
2018-01-19T21:10:15.937Z,3.37
2018-01-19T21:12:43.473Z,3.67
2018-01-19T21:15:10.974Z,3.87
2018-01-19T21:17:39.245Z,3.30
2018-01-19T21:20:06.715Z,3.03
2018-01-19T21:22:34.990Z,3.07
2018-01-19T21:25:03.256Z,3.77
2018-01-19T21:27:31.544Z,3.50
2018-01-19T21:29:59.810Z,3.90
2018-01-19T21:32:28.100Z,3.53
2018-01-19T21:34:56.343Z,3.50
2018-01-19T21:37:23.826Z,3.90
2018-01-19T21:39:52.349Z,3.67
2018-01-19T21:42:19.831Z,4.27
2018-01-19T21:44:47.317Z,3.40
2018-01-19T21:47:15.710Z,4.63
2018-01-19T21:49:44.126Z,4.90
2018-01-19T21:52:11.600Z,5.30
2018-01-19T21:54:39.091Z,5.17
2018-01-19T21:57:06.603Z,6.03
2018-01-19T21:59:34.099Z,5.60
2018-01-19T22:02:01.775Z,4.80
2018-01-19T22:04:30.037Z,4.73
2018-01-19T22:06:58.454Z,3.83
2018-01-19T22:09:25.974Z,3.90
2018-01-19T22:11:53.478Z,3.80
2018-01-19T22:14:20.992Z,3.33
2018-01-19T22:16:48.441Z,3.07
2018-01-19T22:19:16.773Z,4.10
2018-01-19T22:21:44.252Z,3.80
2018-01-19T22:24:11.735Z,3.50
2018-01-19T22:26:39.208Z,3.10
2018-01-19T22:29:07.442Z,4.10
2018-01-19T22:31:34.923Z,3.10
2018-01-19T22:34:02.398Z,3.37
2018-01-19T22:36:30.701Z,3.80
2018-01-19T22:38:58.136Z,3.53
2018-01-19T22:41:26.390Z,3.60
2018-01-19T22:43:53.887Z,3.50
2018-01-19T22:46:21.364Z,3.10
2018-01-19T22:48:48.824Z,3.53
2018-01-19T22:51:16.301Z,3.30
2018-01-19T22:53:44.520Z,3.10
2018-01-19T22:56:11.997Z,3.43
2018-01-19T22:58:39.583Z,2.83
2018-01-19T23:01:07.120Z,2.80
2018-01-19T23:03:34.595Z,3.50
2018-01-19T23:06:02.112Z,3.33
2018-01-19T23:08:29.588Z,3.50
2018-01-19T23:10:57.144Z,3.57
2018-01-19T23:13:24.687Z,2.73
2018-01-19T23:15:53.043Z,4.03
2018-01-19T23:18:21.289Z,3.37
2018-01-19T23:20:48.767Z,3.37
2018-01-19T23:23:16.242Z,3.90
2018-01-19T23:25:44.482Z,3.07
2018-01-19T23:28:11.973Z,3.93
2018-01-19T23:30:40.218Z,3.50
2018-01-19T23:33:07.740Z,3.30
2018-01-19T23:35:35.325Z,3.37
2018-01-19T23:38:02.943Z,3.00
2018-01-19T23:40:30.430Z,3.60
2018-01-19T23:42:57.897Z,3.10
2018-01-19T23:45:25.365Z,3.10
2018-01-19T23:47:52.820Z,3.60
2018-01-19T23:50:20.296Z,4.10
2018-01-19T23:52:48.514Z,2.87
2018-01-19T23:55:15.986Z,2.80
2018-01-19T23:57:43.444Z,2.77
